Time;durP1;ratioP1;P1;durP2;ratioP2;P2;SDS_P1;SDS_P2;PMS_P1;PMS_P2;Temp;Humidity;BMP_temperature;BMP_pressure;BME280_temperature;BME280_humidity;BME280_pressure;Samples;Min_cycle;Max_cycle;Signal;HPM_P1;HPM_P2
2021/03/08 00:02:18;;;;;;;13.20;7.65;;;;;;;5.56;69.63;102002.13;4860740;29;20128;-52
2021/03/08 00:04:45;;;;;;;20.27;9.90;;;;;;;5.59;69.27;102023.53;4861356;29;20052;-52
2021/03/08 00:07:11;;;;;;;18.23;9.52;;;;;;;5.59;69.57;102015.28;4871018;29;20076;-54
2021/03/08 00:09:40;;;;;;;11.38;7.72;;;;;;;5.59;69.30;102012.53;4861035;29;20069;-52
2021/03/08 00:12:08;;;;;;;15.88;8.63;;;;;;;5.60;69.33;102008.69;4861609;29;20113;-54
2021/03/08 00:14:35;;;;;;;14.85;8.30;;;;;;;5.61;69.33;102013.06;4861045;29;20053;-53
2021/03/08 00:17:05;;;;;;;17.63;8.02;;;;;;;5.60;69.43;102000.44;4860805;29;20066;-51
2021/03/08 00:19:33;;;;;;;15.18;8.63;;;;;;;5.61;69.38;102002.91;4861683;29;20396;-56
2021/03/08 00:22:00;;;;;;;18.63;8.32;;;;;;;5.62;69.44;101998.22;4860744;29;20088;-53
2021/03/08 00:24:26;;;;;;;16.05;8.55;;;;;;;5.62;69.66;102009.22;4860666;29;20081;-54
2021/03/08 00:26:52;;;;;;;13.43;7.65;;;;;;;5.62;69.62;102004.53;4860967;29;20132;-51
2021/03/08 00:29:19;;;;;;;15.18;8.57;;;;;;;5.63;69.68;102008.13;4860895;29;20599;-53
2021/03/08 00:31:45;;;;;;;18.27;9.68;;;;;;;5.64;70.02;102012.53;4860259;29;20052;-50
2021/03/08 00:34:11;;;;;;;13.80;7.95;;;;;;;5.66;69.79;102004.81;4860800;29;20094;-53
2021/03/08 00:36:38;;;;;;;11.13;8.18;;;;;;;5.68;69.78;102002.59;4860309;29;20121;-50
2021/03/08 00:39:04;;;;;;;12.70;8.23;;;;;;;5.68;69.98;101994.34;4860612;29;20057;-50
2021/03/08 00:41:31;;;;;;;15.48;10.15;;;;;;;5.70;69.71;101992.13;4846298;29;20117;-54
2021/03/08 00:43:57;;;;;;;13.95;9.73;;;;;;;5.71;70.09;101988.31;4860378;29;20085;-55
2021/03/08 00:46:23;;;;;;;15.13;9.32;;;;;;;5.71;69.95;101991.03;4874782;29;20049;-50
2021/03/08 00:48:50;;;;;;;12.27;9.07;;;;;;;5.73;70.01;101991.56;4860511;29;20056;-52
2021/03/08 00:51:16;;;;;;;16.20;8.73;;;;;;;5.72;70.44;101998.19;4843605;29;20061;-52
2021/03/08 00:53:43;;;;;;;16.95;7.75;;;;;;;5.71;70.58;101989.13;4861078;29;20122;-53
2021/03/08 00:56:09;;;;;;;13.77;7.70;;;;;;;5.74;70.36;101991.31;4874317;29;20157;-56
2021/03/08 00:58:35;;;;;;;10.93;7.25;;;;;;;5.74;70.42;101991.31;4859131;29;20556;-53
2021/03/08 01:01:02;;;;;;;11.98;8.00;;;;;;;5.73;70.43;101986.91;4860214;29;20089;-53
2021/03/08 01:03:28;;;;;;;14.52;7.85;;;;;;;5.74;70.40;101985.00;4860255;29;20049;-54
2021/03/08 01:05:54;;;;;;;16.23;8.57;;;;;;;5.75;70.48;101981.13;4867194;29;20045;-53
2021/03/08 01:08:25;;;;;;;11.35;7.80;;;;;;;5.75;70.64;101983.88;4860235;29;20129;-51
2021/03/08 01:10:51;;;;;;;12.70;7.43;;;;;;;5.76;70.72;101988.28;4869193;29;20391;-50
2021/03/08 01:13:19;;;;;;;16.55;8.05;;;;;;;5.73;70.83;101978.66;4860345;29;20046;-54
2021/03/08 01:15:45;;;;;;;17.85;8.98;;;;;;;5.73;71.45;101972.34;4860319;29;20049;-57
2021/03/08 01:18:14;;;;;;;16.40;7.85;;;;;;;5.72;71.31;101982.50;4859720;29;20077;-50
2021/03/08 01:20:40;;;;;;;18.65;8.27;;;;;;;5.73;71.17;101980.59;4858467;29;20052;-55
2021/03/08 01:23:07;;;;;;;14.48;8.68;;;;;;;5.71;71.69;101974.56;4857999;29;20041;-55
2021/03/08 01:25:33;;;;;;;13.73;7.97;;;;;;;5.73;71.35;101972.34;4859878;29;20500;-54
2021/03/08 01:27:59;;;;;;;15.20;8.68;;;;;;;5.73;71.73;101973.16;4860129;29;20061;-50
2021/03/08 01:30:28;;;;;;;13.25;8.05;;;;;;;5.71;72.26;101975.38;4860052;29;20087;-53
2021/03/08 01:32:55;;;;;;;19.27;8.88;;;;;;;5.73;72.23;101966.84;4859323;29;20045;-54
2021/03/08 01:35:23;;;;;;;16.00;9.20;;;;;;;5.72;72.76;101971.53;4860181;29;20484;-52
2021/03/08 01:37:50;;;;;;;14.07;7.47;;;;;;;5.69;73.16;101965.78;4859477;29;20136;-54
2021/03/08 01:40:18;;;;;;;15.13;8.10;;;;;;;5.68;73.46;101953.97;4842765;29;20508;-53
2021/03/08 01:42:45;;;;;;;15.15;9.00;;;;;;;5.68;73.32;101964.13;4859561;29;20148;-53
2021/03/08 01:45:14;;;;;;;13.80;8.85;;;;;;;5.67;73.49;101954.22;4860173;29;20488;-54
2021/03/08 01:47:43;;;;;;;15.70;8.13;;;;;;;5.66;73.89;101952.63;4859197;29;20053;-51
2021/03/08 01:50:15;;;;;;;15.48;8.77;;;;;;;5.62;74.36;101946.84;4859549;29;20055;-52
2021/03/08 01:52:41;;;;;;;11.57;7.93;;;;;;;5.61;73.99;101944.41;4858015;29;20077;-52
2021/03/08 01:55:08;;;;;;;15.18;8.20;;;;;;;5.60;74.32;101946.31;4859082;29;20053;-56
2021/03/08 01:57:36;;;;;;;14.35;8.05;;;;;;;5.60;74.41;101940.81;4859574;29;20129;-56
2021/03/08 02:00:19;;;;;;;14.15;7.40;;;;;;;5.60;74.36;101940.00;4859159;29;20053;-54
2021/03/08 02:02:45;;;;;;;15.30;8.65;;;;;;;5.60;74.29;101940.81;4859454;29;20079;-51
2021/03/08 02:05:14;;;;;;;13.02;8.20;;;;;;;5.59;75.06;101936.44;4859481;29;20045;-53
2021/03/08 02:07:41;;;;;;;15.57;8.18;;;;;;;5.59;74.61;101938.38;4859151;29;20128;-53
2021/03/08 02:10:10;;;;;;;16.50;9.25;;;;;;;5.58;75.18;101932.06;4863932;29;20595;-54
2021/03/08 02:12:48;;;;;;;11.18;6.85;;;;;;;5.58;75.55;101932.06;4861293;29;20087;-52
2021/03/08 02:15:30;;;;;;;12.88;7.03;;;;;;;5.59;75.19;101935.63;4858797;29;20045;-53
2021/03/08 02:18:17;;;;;;;12.25;7.68;;;;;;;5.59;75.26;101930.13;4859839;29;20057;-51
2021/03/08 02:21:12;;;;;;;10.95;6.88;;;;;;;5.61;75.01;101933.41;4858407;29;20113;-49
2021/03/08 02:24:09;;;;;;;13.15;6.75;;;;;;;5.60;74.86;101934.50;4856089;29;20461;-51
2021/03/08 02:26:44;;;;;;;12.23;7.75;;;;;;;5.60;74.52;101931.75;4854996;29;20117;-53
2021/03/08 02:29:17;;;;;;;15.40;7.35;;;;;;;5.59;74.61;101932.88;4858926;29;20467;-48
2021/03/08 02:31:46;;;;;;;;;;;;;;;5.58;74.59;101936.72;4859264;29;20073;-52
2021/03/08 02:34:20;;;;;;;12.02;6.60;;;;;;;5.60;74.43;101929.00;4858780;29;20358;-49
2021/03/08 02:36:52;;;;;;;13.25;7.35;;;;;;;5.61;74.10;101919.69;4859387;29;20119;-52
2021/03/08 02:39:39;;;;;;;;;;;;;;;5.60;74.77;101923.50;4859503;29;20141;-52
2021/03/08 02:42:13;;;;;;;12.90;6.55;;;;;;;5.62;74.15;101916.63;4858835;29;20251;-52
2021/03/08 02:44:39;;;;;;;11.73;6.70;;;;;;;5.63;73.91;101923.78;4872837;29;20085;-52
2021/03/08 02:47:10;;;;;;;15.95;8.95;;;;;;;5.63;73.86;101910.03;4864411;29;20073;-51
2021/03/08 02:49:39;;;;;;;16.92;8.18;;;;;;;5.66;74.29;101922.38;4865285;29;20052;-53
2021/03/08 02:52:10;;;;;;;10.82;6.55;;;;;;;5.66;74.39;101911.41;4864910;29;20091;-49
2021/03/08 02:54:40;;;;;;;10.38;6.57;;;;;;;5.66;74.25;101898.50;4864659;29;20053;-49
2021/03/08 02:57:09;;;;;;;15.27;7.10;;;;;;;5.66;74.04;101894.91;4864646;29;20098;-51
2021/03/08 02:59:39;;;;;;;11.13;6.07;;;;;;;5.69;73.97;101899.84;4861606;29;20148;-52
2021/03/08 03:02:08;;;;;;;14.15;6.72;;;;;;;5.68;74.17;101892.69;4862505;29;20128;-51
2021/03/08 03:04:37;;;;;;;12.95;6.38;;;;;;;5.69;74.21;101899.84;4864817;29;20084;-55
2021/03/08 03:07:05;;;;;;;11.02;5.85;;;;;;;5.69;73.95;101888.84;4871450;29;20109;-50
2021/03/08 03:09:34;;;;;;;10.70;5.95;;;;;;;5.70;74.15;101885.81;4866293;29;20057;-50
2021/03/08 03:12:01;;;;;;;10.55;5.53;;;;;;;5.71;74.37;101883.91;4850930;29;20575;-53
2021/03/08 03:14:29;;;;;;;13.10;7.15;;;;;;;5.70;74.25;101874.81;4865151;29;20060;-53
2021/03/08 03:17:00;;;;;;;12.77;7.03;;;;;;;5.70;74.49;101890.47;4863879;29;20133;-54
2021/03/08 03:19:28;;;;;;;10.80;6.93;;;;;;;5.69;74.37;101878.69;4865185;29;20437;-51
2021/03/08 03:21:59;;;;;;;9.50;6.63;;;;;;;5.69;74.64;101875.13;4864594;29;20142;-53
2021/03/08 03:24:27;;;;;;;15.35;7.45;;;;;;;5.71;74.74;101876.47;4864680;29;20068;-53
2021/03/08 03:26:54;;;;;;;10.82;6.35;;;;;;;5.70;74.56;101869.31;4864760;29;20057;-52
2021/03/08 03:29:21;;;;;;;9.85;6.60;;;;;;;5.69;74.46;101869.63;4864777;29;20098;-53
2021/03/08 03:31:49;;;;;;;9.27;5.53;;;;;;;5.67;74.46;101872.63;4864356;29;20072;-50
2021/03/08 03:34:17;;;;;;;11.80;8.25;;;;;;;5.65;74.45;101863.03;4864747;29;20465;-48
2021/03/08 03:36:46;;;;;;;12.25;6.28;;;;;;;5.63;74.59;101859.78;4878450;29;20140;-52
2021/03/08 03:39:13;;;;;;;9.52;5.78;;;;;;;5.61;74.63;101856.50;4864500;29;20053;-48
2021/03/08 03:41:40;;;;;;;11.77;5.82;;;;;;;5.61;74.74;101851.00;4864836;29;20096;-48
2021/03/08 03:44:08;;;;;;;14.48;7.20;;;;;;;5.60;74.93;101852.09;4865040;29;20127;-50
2021/03/08 03:46:42;;;;;;;17.42;6.60;;;;;;;5.60;75.00;101843.84;4864793;29;20057;-48
2021/03/08 03:49:12;;;;;;;7.53;4.95;;;;;;;5.59;74.65;101844.97;4847800;29;20080;-49
2021/03/08 03:51:40;;;;;;;10.32;5.93;;;;;;;5.58;74.90;101838.66;4864333;29;20046;-51
2021/03/08 03:54:07;;;;;;;8.95;4.80;;;;;;;5.57;74.99;101842.50;4864388;29;20101;-49
2021/03/08 03:56:33;;;;;;;8.85;5.45;;;;;;;5.54;75.29;101849.38;4864823;29;20101;-48
2021/03/08 03:59:26;;;;;;;10.05;5.80;;;;;;;5.52;75.71;101846.09;4860246;29;20495;-50
2021/03/08 04:01:58;;;;;;;12.77;6.25;;;;;;;5.49;75.27;101835.69;4861581;29;20049;-51
2021/03/08 04:04:37;;;;;;;5.95;3.35;;;;;;;5.47;76.23;101837.09;4861941;29;20142;-50
2021/03/08 04:07:06;;;;;;;8.80;5.07;;;;;;;5.46;75.45;101841.75;4860782;29;20098;-50
2021/03/08 04:09:34;;;;;;;6.78;5.22;;;;;;;5.45;75.67;101840.09;4862948;29;20102;-49
2021/03/08 04:12:02;;;;;;;9.85;4.60;;;;;;;5.44;75.86;101849.47;4880035;29;20558;-49
2021/03/08 04:14:33;;;;;;;10.52;5.90;;;;;;;5.43;76.05;101842.31;4879718;29;20041;-52
2021/03/08 04:17:00;;;;;;;9.73;5.78;;;;;;;5.44;75.92;101848.63;4863578;29;20054;-48
2021/03/08 04:19:30;;;;;;;8.48;5.70;;;;;;;5.42;75.86;101834.38;4861352;29;20042;-48
2021/03/08 04:22:05;;;;;;;9.80;5.40;;;;;;;5.39;76.41;101837.69;4861034;29;20105;-49
2021/03/08 04:24:33;;;;;;;7.63;4.93;;;;;;;5.39;76.48;101848.66;4860681;29;20499;-56
2021/03/08 04:27:05;;;;;;;8.18;4.68;;;;;;;5.36;76.29;101838.25;4861123;29;20136;-48
2021/03/08 04:29:40;;;;;;;7.85;5.47;;;;;;;5.34;76.92;101848.69;4874394;29;20128;-48
2021/03/08 04:32:15;;;;;;;11.63;5.45;;;;;;;5.33;76.48;101847.03;4848216;29;20048;-52
2021/03/08 04:34:43;;;;;;;11.80;4.97;;;;;;;5.33;76.78;101847.03;4861251;29;20558;-53
2021/03/08 04:37:12;;;;;;;10.95;5.20;;;;;;;5.32;76.81;101846.22;4860234;29;20049;-52
2021/03/08 04:39:39;;;;;;;9.85;5.05;;;;;;;5.32;76.68;101845.41;4860926;29;20109;-52
2021/03/08 04:42:08;;;;;;;9.38;5.45;;;;;;;5.29;76.83;101838.56;4843705;29;20068;-51
2021/03/08 04:44:39;;;;;;;8.90;5.00;;;;;;;5.28;76.97;101839.66;4842798;29;20094;-52
2021/03/08 04:47:07;;;;;;;8.68;4.72;;;;;;;5.29;77.21;101840.50;4850393;29;20079;-50
2021/03/08 04:49:35;;;;;;;10.18;4.32;;;;;;;5.29;76.96;101844.06;4860539;29;20106;-50
2021/03/08 04:52:03;;;;;;;9.77;5.10;;;;;;;5.28;76.85;101847.06;4860168;29;20445;-51
2021/03/08 04:54:30;;;;;;;8.32;5.15;;;;;;;5.28;76.97;101847.91;4859966;29;20117;-53
2021/03/08 04:56:56;;;;;;;7.65;4.78;;;;;;;5.28;77.24;101847.06;4860281;29;20136;-47
2021/03/08 04:59:24;;;;;;;10.40;5.32;;;;;;;5.26;77.38;101847.38;4860363;29;20105;-49
2021/03/08 05:01:53;;;;;;;12.55;5.70;;;;;;;5.27;77.57;101851.75;4860619;29;20156;-49
2021/03/08 05:04:22;;;;;;;7.65;4.93;;;;;;;5.28;78.00;101852.56;4873964;29;20038;-50
2021/03/08 05:06:49;;;;;;;8.55;5.43;;;;;;;5.27;77.83;101846.25;4871354;29;20116;-47
2021/03/08 05:09:16;;;;;;;10.95;5.70;;;;;;;5.28;78.49;101849.81;4860183;29;20049;-48
2021/03/08 05:11:46;;;;;;;11.18;5.85;;;;;;;5.24;78.75;101848.75;4863392;29;20080;-51
2021/03/08 05:14:16;;;;;;;9.10;6.03;;;;;;;5.24;79.11;101846.81;4860138;29;20124;-48
2021/03/08 05:16:47;;;;;;;11.07;5.30;;;;;;;5.24;79.53;101843.25;4860050;29;20046;-52
2021/03/08 05:19:15;;;;;;;8.68;5.28;;;;;;;5.24;79.32;101855.03;4860092;29;20503;-49
2021/03/08 05:21:43;;;;;;;7.40;4.78;;;;;;;5.24;78.96;101854.25;4860036;29;20102;-47
2021/03/08 05:24:12;;;;;;;11.27;5.43;;;;;;;5.22;79.53;101851.75;4874021;29;20065;-48
2021/03/08 05:26:39;;;;;;;12.23;5.07;;;;;;;5.23;78.79;101850.69;4859803;29;20045;-47
2021/03/08 05:29:07;;;;;;;7.55;4.57;;;;;;;5.24;79.43;101855.03;4860476;29;20479;-51
2021/03/08 05:31:41;;;;;;;10.60;4.93;;;;;;;5.22;79.68;101857.25;4859633;29;20132;-54
2021/03/08 05:34:09;;;;;;;7.03;4.25;;;;;;;5.22;79.47;101849.03;4859659;29;20129;-50
2021/03/08 05:36:45;;;;;;;11.30;6.13;;;;;;;5.22;80.71;101859.19;4859994;29;20076;-49
2021/03/08 05:39:13;;;;;;;7.88;4.85;;;;;;;5.21;79.89;101855.63;4860095;29;20050;-52
2021/03/08 05:42:02;;;;;;;8.98;4.45;;;;;;;5.17;80.34;101854.53;4859693;29;20132;-50
2021/03/08 05:44:31;;;;;;;6.97;4.35;;;;;;;5.19;80.09;101855.06;4859992;29;20054;-48
2021/03/08 05:47:35;;;;;;;7.55;5.00;;;;;;;5.19;80.40;101851.53;4859368;29;20057;-49
2021/03/08 05:50:23;;;;;;;8.50;5.07;;;;;;;5.19;80.08;101857.81;4860049;29;20045;-53
2021/03/08 05:53:26;;;;;;;8.02;4.68;;;;;;;5.17;80.45;101864.69;4854337;29;20041;-50
2021/03/08 05:56:20;;;;;;;7.45;4.85;;;;;;;5.16;80.08;101858.41;4859397;29;20045;-53
2021/03/08 05:58:51;;;;;;;6.50;4.35;;;;;;;5.17;80.11;101854.53;4859531;29;20073;-49
2021/03/08 06:01:41;;;;;;;6.30;4.32;;;;;;;5.17;79.86;101849.06;4858583;29;20069;-48
2021/03/08 06:04:16;;;;;;;8.85;4.72;;;;;;;5.17;80.22;101853.72;4851981;29;20085;-49
2021/03/08 06:06:47;;;;;;;6.78;4.35;;;;;;;5.19;80.23;101857.81;4859633;29;20091;-48
2021/03/08 06:09:26;;;;;;;8.03;5.10;;;;;;;5.19;80.23;101854.28;4859186;29;20457;-50
2021/03/08 06:12:03;;;;;;;7.28;4.80;;;;;;;5.22;80.37;101848.19;4842484;29;20053;-50
2021/03/08 06:14:46;;;;;;;9.52;4.72;;;;;;;5.22;80.38;101845.44;4859487;29;20379;-48
2021/03/08 06:17:14;;;;;;;8.25;4.60;;;;;;;5.22;80.62;101846.28;4840911;29;20565;-52
2021/03/08 06:19:42;;;;;;;6.70;5.40;;;;;;;5.22;80.64;101840.78;4857084;29;20057;-50
2021/03/08 06:22:09;;;;;;;12.82;6.05;;;;;;;5.24;80.67;101843.25;4841759;29;20042;-50
2021/03/08 06:24:41;;;;;;;8.98;4.82;;;;;;;5.24;80.79;101838.56;4859091;29;20041;-54
2021/03/08 06:27:09;;;;;;;7.65;4.38;;;;;;;5.26;80.46;101841.88;4841184;29;20137;-48
2021/03/08 06:29:36;;;;;;;9.38;5.05;;;;;;;5.26;80.22;101832.81;4826751;29;20397;-51
2021/03/08 06:32:04;;;;;;;12.82;6.68;;;;;;;5.27;80.46;101840.75;4858853;29;20129;-49
2021/03/08 06:34:32;;;;;;;10.02;4.97;;;;;;;5.28;80.63;101828.69;4858543;29;20165;-50
2021/03/08 06:37:06;;;;;;;10.48;5.00;;;;;;;5.28;80.55;101828.69;4858989;29;20140;-50
2021/03/08 06:39:38;;;;;;;7.88;4.95;;;;;;;5.28;80.55;101834.16;4846686;29;20080;-51
2021/03/08 06:42:06;;;;;;;7.68;4.97;;;;;;;5.28;80.38;101825.94;4859075;29;20094;-50
2021/03/08 06:44:32;;;;;;;6.68;4.50;;;;;;;5.29;80.12;101838.56;4859329;29;20124;-52
2021/03/08 06:46:59;;;;;;;7.30;4.80;;;;;;;5.27;80.43;101843.50;4859433;29;20080;-48
2021/03/08 06:49:25;;;;;;;8.00;5.65;;;;;;;5.27;80.53;101835.25;4858646;29;20093;-48
2021/03/08 06:52:08;;;;;;;8.07;4.85;;;;;;;5.25;80.72;101845.72;4859054;29;20516;-48
2021/03/08 06:54:58;;;;;;;8.90;5.07;;;;;;;5.25;80.81;101834.72;4849338;29;20116;-52
2021/03/08 06:57:27;;;;;;;9.88;4.95;;;;;;;5.24;80.74;101844.06;4858565;29;20049;-50
2021/03/08 07:00:08;;;;;;;10.88;5.65;;;;;;;5.22;80.98;101843.53;4841793;29;20132;-48
2021/03/08 07:02:44;;;;;;;9.45;5.63;;;;;;;5.24;80.70;101848.75;4858870;29;20041;-52
2021/03/08 07:05:35;;;;;;;9.05;5.75;;;;;;;5.21;80.96;101844.66;4863253;29;20049;-49
2021/03/08 07:08:01;;;;;;;12.30;5.43;;;;;;;5.20;80.88;101847.66;4862018;29;20060;-49
2021/03/08 07:10:34;;;;;;;8.18;5.45;;;;;;;5.22;80.64;101850.94;4860956;29;20083;-49
2021/03/08 07:13:02;;;;;;;9.88;5.65;;;;;;;5.23;80.72;101850.69;4869721;29;20049;-51
2021/03/08 07:15:28;;;;;;;8.23;5.78;;;;;;;5.25;80.63;101851.22;4858209;29;20096;-48
2021/03/08 07:17:55;;;;;;;9.75;5.00;;;;;;;5.27;80.78;101854.47;4840804;29;20054;-52
2021/03/08 07:20:26;;;;;;;11.45;5.25;;;;;;;5.27;80.97;101853.69;4840030;29;20686;-52
2021/03/08 07:22:55;;;;;;;8.07;5.60;;;;;;;5.27;80.68;101854.47;4857475;29;20128;-48
2021/03/08 07:25:26;;;;;;;9.02;5.25;;;;;;;5.29;81.01;101852.31;4858898;29;20057;-49
2021/03/08 07:27:52;;;;;;;11.07;5.70;;;;;;;5.31;80.50;101850.09;4858542;29;20073;-47
2021/03/08 07:30:36;;;;;;;9.02;5.00;;;;;;;5.33;80.91;101853.34;4838232;29;20457;-49
2021/03/08 07:33:05;;;;;;;9.13;4.90;;;;;;;5.36;80.79;101846.47;4860677;29;20049;-50
2021/03/08 07:35:52;;;;;;;13.10;6.68;;;;;;;5.38;81.22;101839.59;4862235;29;20052;-47
2021/03/08 07:38:35;;;;;;;9.55;5.05;;;;;;;5.40;80.95;101848.38;4860873;29;20472;-49
2021/03/08 07:41:15;;;;;;;7.97;4.82;;;;;;;5.45;80.73;101845.59;4861542;29;20045;-52
2021/03/08 07:43:44;;;;;;;9.15;5.18;;;;;;;5.48;80.75;101856.00;4861994;29;20053;-48
2021/03/08 07:46:33;;;;;;;8.93;4.07;;;;;;;5.50;80.91;101851.06;4861854;29;20480;-48
2021/03/08 07:49:03;;;;;;;9.63;4.05;;;;;;;5.53;80.72;101855.97;4861711;29;20105;-50
2021/03/08 07:51:30;;;;;;;7.40;4.65;;;;;;;5.57;80.70;101849.91;4861430;29;20053;-51
2021/03/08 07:54:01;;;;;;;8.75;4.43;;;;;;;5.60;80.72;101846.59;4861569;29;20080;-49
2021/03/08 07:56:28;;;;;;;8.70;4.80;;;;;;;5.63;81.21;101846.03;4861389;29;20053;-50
2021/03/08 07:58:55;;;;;;;9.07;5.32;;;;;;;5.66;80.76;101842.72;4861292;29;20041;-50
2021/03/08 08:01:22;;;;;;;8.45;5.32;;;;;;;5.69;80.71;101845.72;4860660;29;20467;-50
2021/03/08 08:03:50;;;;;;;13.30;5.43;;;;;;;5.71;80.99;101837.19;4860784;29;20037;-53
2021/03/08 08:06:21;;;;;;;6.10;4.38;;;;;;;5.75;81.08;101838.25;4871681;29;20100;-48
2021/03/08 08:08:53;;;;;;;8.38;4.65;;;;;;;5.76;81.26;101837.16;4860792;29;20136;-48
2021/03/08 08:11:27;;;;;;;7.70;4.43;;;;;;;5.79;81.03;101836.56;4860520;29;20081;-54
2021/03/08 08:13:56;;;;;;;6.45;4.30;;;;;;;5.83;80.80;101837.63;4861314;29;20072;-53
2021/03/08 08:16:25;;;;;;;7.03;4.30;;;;;;;5.85;81.23;101839.00;4861430;29;20077;-53
2021/03/08 08:19:00;;;;;;;8.82;4.72;;;;;;;5.89;81.04;101828.28;4865497;29;20060;-49
2021/03/08 08:21:31;;;;;;;9.48;4.53;;;;;;;5.91;81.12;101837.88;4860836;29;20143;-48
2021/03/08 08:24:23;;;;;;;8.48;4.75;;;;;;;5.94;81.14;101837.31;4860986;29;20041;-49
2021/03/08 08:26:54;;;;;;;13.40;5.03;;;;;;;5.99;81.19;101839.19;4861048;29;20072;-49
2021/03/08 08:29:26;;;;;;;6.07;3.95;;;;;;;6.04;81.31;101841.88;4875102;29;20763;-53
2021/03/08 08:32:01;;;;;;;9.95;5.22;;;;;;;6.09;81.02;101845.41;4859543;29;20460;-50
2021/03/08 08:34:30;;;;;;;9.75;5.10;;;;;;;6.15;80.85;101846.19;4853263;29;20045;-50
2021/03/08 08:37:12;;;;;;;10.15;5.30;;;;;;;6.20;81.06;101840.63;4859281;29;20136;-50
2021/03/08 08:39:44;;;;;;;7.78;4.30;;;;;;;6.24;81.12;101840.88;4858258;29;20048;-48
2021/03/08 08:42:24;;;;;;;11.27;5.07;;;;;;;6.32;80.99;101846.59;4859088;29;20076;-54
2021/03/08 08:44:55;;;;;;;6.30;4.60;;;;;;;6.38;80.93;101834.41;4858173;29;20045;-50
2021/03/08 08:47:24;;;;;;;9.98;5.75;;;;;;;6.44;81.17;101830.50;4858519;29;20068;-49
2021/03/08 08:49:56;;;;;;;12.70;5.60;;;;;;;6.49;80.99;101838.69;4858853;29;20068;-48
2021/03/08 08:52:46;;;;;;;10.75;5.93;;;;;;;6.52;81.22;101843.63;4858370;29;20448;-51
2021/03/08 08:55:14;;;;;;;9.75;5.70;;;;;;;6.56;80.90;101830.94;4857914;29;20056;-50
2021/03/08 08:58:18;;;;;;;13.23;5.28;;;;;;;6.60;81.14;101840.22;4858212;29;20480;-48
2021/03/08 09:01:11;;;;;;;9.73;4.78;;;;;;;6.63;80.92;101828.66;4858536;29;20501;-48
2021/03/08 09:03:55;;;;;;;7.90;6.03;;;;;;;6.67;81.00;101826.94;4857896;29;20053;-51
2021/03/08 09:06:54;;;;;;;9.52;6.18;;;;;;;6.72;80.76;101829.63;4856882;29;20053;-53
2021/03/08 09:09:33;;;;;;;8.68;5.50;;;;;;;6.77;80.93;101834.28;4871700;29;20049;-55
2021/03/08 09:12:09;;;;;;;8.43;6.18;;;;;;;6.80;80.97;101830.94;4858423;29;20052;-47
2021/03/08 09:14:41;;;;;;;13.65;7.07;;;;;;;6.85;80.89;101819.03;4858283;29;20120;-50
2021/03/08 09:17:08;;;;;;;;;;;;;;;6.89;81.18;101825.56;4856809;29;20052;-52
2021/03/08 09:19:35;;;;;;;12.88;6.53;;;;;;;6.93;80.83;101823.88;4858291;29;20023;-48
2021/03/08 09:22:47;;;;;;;13.02;5.85;;;;;;;7.00;80.65;101822.41;4858265;29;20052;-49
2021/03/08 09:25:20;;;;;;;13.80;6.00;;;;;;;7.07;80.60;101822.06;4836177;29;20107;-49
2021/03/08 09:27:49;;;;;;;13.02;6.82;;;;;;;7.11;80.70;101818.41;4855996;29;20069;-51
2021/03/08 09:30:21;;;;;;;11.48;6.15;;;;;;;7.15;80.51;101821.38;4850279;29;20049;-47
2021/03/08 09:32:55;;;;;;;11.10;6.30;;;;;;;7.19;80.74;101815.00;4857587;29;20073;-50
2021/03/08 09:35:25;;;;;;;13.00;5.47;;;;;;;7.25;80.47;101807.50;4857933;29;20054;-50
2021/03/08 09:37:56;;;;;;;9.57;5.93;;;;;;;7.32;80.59;101807.94;4857568;29;20042;-48
2021/03/08 09:40:27;;;;;;;13.60;6.00;;;;;;;7.38;80.44;101815.00;4857934;29;20055;-51
2021/03/08 09:42:54;;;;;;;10.07;5.97;;;;;;;7.46;80.54;101808.00;4857963;29;20870;-52
2021/03/08 09:45:22;;;;;;;10.38;5.80;;;;;;;7.52;80.56;101818.63;4858402;29;20049;-49
2021/03/08 09:47:51;;;;;;;11.13;6.13;;;;;;;7.59;80.60;101827.38;4857204;29;20049;-48
2021/03/08 09:50:37;;;;;;;10.40;6.38;;;;;;;7.64;80.31;101831.97;4858284;29;20749;-51
2021/03/08 09:53:06;;;;;;;11.00;4.90;;;;;;;7.69;80.36;101832.72;4857348;29;20049;-51
2021/03/08 09:55:36;;;;;;;10.30;5.30;;;;;;;7.72;80.21;101828.53;4856580;29;20308;-48
2021/03/08 09:58:12;;;;;;;8.90;6.20;;;;;;;7.77;80.02;101832.03;4840005;29;20472;-51
2021/03/08 10:00:59;;;;;;;14.88;6.60;;;;;;;7.79;79.87;101840.00;4857542;29;20507;-52
2021/03/08 10:03:26;;;;;;;9.75;5.80;;;;;;;7.76;79.86;101840.59;4857679;29;20052;-49
2021/03/08 10:05:54;;;;;;;13.50;8.15;;;;;;;7.75;79.68;101837.03;4859888;29;20491;-50
2021/03/08 10:08:28;;;;;;;13.68;7.35;;;;;;;7.80;79.75;101830.63;4851131;29;20045;-48
2021/03/08 10:10:56;;;;;;;13.50;7.20;;;;;;;7.86;79.87;101813.69;4862877;29;20049;-51
2021/03/08 10:13:23;;;;;;;16.08;8.30;;;;;;;7.94;79.51;101815.75;4862986;29;20057;-51
2021/03/08 10:15:57;;;;;;;13.82;8.18;;;;;;;8.06;79.58;101814.47;4857478;29;20109;-49
2021/03/08 10:18:29;;;;;;;17.25;9.13;;;;;;;8.16;79.34;101817.84;4858205;29;20204;-50
2021/03/08 10:20:57;;;;;;;17.30;8.98;;;;;;;8.25;79.01;101818.00;4862099;29;20037;-50
2021/03/08 10:23:24;;;;;;;15.05;8.50;;;;;;;8.29;78.94;101816.28;4856481;29;20090;-51
2021/03/08 10:25:52;;;;;;;14.63;8.50;;;;;;;8.35;78.71;101804.84;4857415;29;20125;-50
2021/03/08 10:28:18;;;;;;;12.13;7.32;;;;;;;8.44;78.40;101818.78;4856831;29;20484;-53
2021/03/08 10:30:47;;;;;;;9.57;7.00;;;;;;;8.46;78.15;101811.00;4855736;29;20102;-51
2021/03/08 10:33:18;;;;;;;10.90;6.07;;;;;;;8.46;77.67;101813.75;4857063;29;20064;-51
2021/03/08 10:35:47;;;;;;;6.90;4.68;;;;;;;8.44;77.24;101805.81;4854259;29;20161;-51
2021/03/08 10:38:34;;;;;;;7.88;5.20;;;;;;;8.49;77.03;101793.84;4856235;29;20113;-52
2021/03/08 10:41:02;;;;;;;6.93;4.80;;;;;;;8.56;76.85;101785.97;4870488;29;20381;-53
2021/03/08 10:43:30;;;;;;;6.45;3.80;;;;;;;8.66;76.55;101788.50;4840086;29;20084;-51
2021/03/08 10:45:59;;;;;;;4.72;3.30;;;;;;;8.66;75.44;101791.28;4856694;29;20113;-48
2021/03/08 10:48:27;;;;;;;5.05;3.33;;;;;;;8.66;75.00;101788.50;4856693;29;20518;-50
2021/03/08 10:50:59;;;;;;;6.93;3.40;;;;;;;8.65;73.63;101784.13;4856915;29;20128;-49
2021/03/08 10:53:54;;;;;;;5.95;3.55;;;;;;;8.71;71.75;101774.59;4855827;29;20456;-53
2021/03/08 10:56:21;;;;;;;4.57;3.45;;;;;;;8.81;73.51;101776.34;4853670;29;20049;-52
2021/03/08 10:58:47;;;;;;;5.63;4.00;;;;;;;8.94;73.57;101773.56;4856353;29;20555;-55
2021/03/08 11:01:13;;;;;;;8.80;3.20;;;;;;;9.18;73.27;101768.63;4856508;29;20046;-56
2021/03/08 11:03:42;;;;;;;5.78;2.72;;;;;;;9.51;72.52;101766.44;4856116;29;20125;-51
2021/03/08 11:06:13;;;;;;;4.60;3.22;;;;;;;9.90;71.31;101751.91;4868797;29;20048;-52
2021/03/08 11:08:53;;;;;;;6.88;3.58;;;;;;;10.20;70.38;101759.44;4842162;29;20444;-53
2021/03/08 11:11:22;;;;;;;6.93;3.53;;;;;;;10.48;69.45;101767.56;4860115;29;20484;-50
2021/03/08 11:13:50;;;;;;;4.82;3.03;;;;;;;10.61;68.57;101772.16;4859106;29;20088;-52
2021/03/08 11:16:17;;;;;;;7.13;3.15;;;;;;;10.66;68.19;101763.72;4859981;29;20064;-55
2021/03/08 11:18:44;;;;;;;9.82;4.43;;;;;;;10.66;67.67;101761.75;4865164;29;20077;-54
2021/03/08 11:21:21;;;;;;;6.63;3.47;;;;;;;10.65;66.19;101760.13;4859671;29;20045;-49
2021/03/08 11:23:48;;;;;;;6.55;3.60;;;;;;;10.59;67.18;101755.06;4859385;29;20381;-54
2021/03/08 11:26:16;;;;;;;8.25;4.03;;;;;;;10.53;67.15;101753.56;4860349;29;20050;-52
2021/03/08 11:28:43;;;;;;;5.00;3.72;;;;;;;10.52;67.14;101749.97;4859312;29;20097;-49
2021/03/08 11:31:25;;;;;;;4.65;3.65;;;;;;;10.48;66.24;101762.03;4858170;29;20053;-54
2021/03/08 11:33:57;;;;;;;7.93;4.15;;;;;;;10.43;66.82;101753.84;4856315;29;20049;-53
2021/03/08 11:36:34;;;;;;;7.03;4.13;;;;;;;10.41;65.96;101751.38;4843271;29;20115;-58
2021/03/08 11:39:06;;;;;;;6.70;3.60;;;;;;;10.36;66.67;101744.06;4859513;29;20042;-55
2021/03/08 11:41:34;;;;;;;5.50;3.78;;;;;;;10.40;67.00;101745.03;4859931;29;20056;-51
2021/03/08 11:44:01;;;;;;;5.55;3.00;;;;;;;10.46;66.96;101747.69;4858709;29;20080;-53
2021/03/08 11:46:28;;;;;;;8.02;4.32;;;;;;;10.47;66.59;101743.75;4858174;29;20041;-50
2021/03/08 11:49:03;;;;;;;5.53;3.30;;;;;;;10.45;65.09;101757.13;4862392;29;20053;-53
2021/03/08 11:51:30;;;;;;;6.88;3.90;;;;;;;10.34;65.95;101759.34;4863083;29;20060;-50